Time;durP1;ratioP1;P1;durP2;ratioP2;P2;SDS_P1;SDS_P2;PMS_P1;PMS_P2;Temp;Humidity;BMP_temperature;BMP_pressure;BME280_temperature;BME280_humidity;BME280_pressure;Samples;Min_cycle;Max_cycle;Signal;HPM_P1;HPM_P2
2023/05/16 00:00:09;;;;;;;16.50;2.80;;;9.40;99.90;;;;;;5002008;28;20236;-82
2023/05/16 00:02:38;;;;;;;9.38;2.20;;;9.30;99.90;;;;;;5018934;28;20033;-82
2023/05/16 00:05:06;;;;;;;18.13;2.60;;;9.30;99.90;;;;;;5017902;28;20120;-81
2023/05/16 00:07:33;;;;;;;11.70;2.55;;;9.30;99.90;;;;;;5000344;28;20037;-82
2023/05/16 00:09:59;;;;;;;13.23;2.80;;;9.30;99.90;;;;;;5001749;28;20033;-82
2023/05/16 00:12:25;;;;;;;12.40;2.50;;;9.20;99.90;;;;;;5011198;28;20034;-82
2023/05/16 00:14:51;;;;;;;13.13;2.35;;;9.20;99.90;;;;;;4998143;28;20040;-82
2023/05/16 00:17:19;;;;;;;16.88;2.70;;;9.10;99.90;;;;;;4985370;28;20120;-81
2023/05/16 00:19:47;;;;;;;12.40;2.92;;;9.10;99.90;;;;;;4999227;28;20064;-83
2023/05/16 00:22:14;;;;;;;22.77;3.10;;;9.00;99.90;;;;;;5015641;28;20505;-82
2023/05/16 00:24:40;;;;;;;11.52;2.55;;;9.00;99.90;;;;;;4997672;28;20037;-82
2023/05/16 00:27:07;;;;;;;13.88;2.42;;;9.00;99.90;;;;;;5013400;28;20121;-82
2023/05/16 00:29:33;;;;;;;14.73;2.50;;;8.90;99.90;;;;;;4992577;28;20045;-82
2023/05/16 00:31:59;;;;;;;15.73;3.83;;;9.00;99.90;;;;;;4986833;28;20038;-82
2023/05/16 00:34:25;;;;;;;12.40;3.17;;;8.90;99.90;;;;;;4995231;28;20029;-81
2023/05/16 00:36:52;;;;;;;13.75;2.47;;;8.90;99.90;;;;;;4987284;28;20559;-82
2023/05/16 00:39:17;;;;;;;20.50;3.17;;;8.80;99.90;;;;;;4963272;28;20042;-82
2023/05/16 00:41:44;;;;;;;16.45;3.25;;;8.80;99.90;;;;;;4998077;28;20041;-83
2023/05/16 00:44:10;;;;;;;21.15;2.80;;;8.80;99.90;;;;;;4983227;28;20045;-82
2023/05/16 00:46:36;;;;;;;11.98;2.28;;;8.80;99.90;;;;;;4999102;28;20107;-82
2023/05/16 00:49:03;;;;;;;14.88;2.20;;;9.10;99.90;;;;;;4982008;28;20120;-82
2023/05/16 00:51:29;;;;;;;14.35;2.92;;;8.70;99.90;;;;;;4983016;28;20131;-81
2023/05/16 00:53:56;;;;;;;14.30;2.53;;;8.70;99.90;;;;;;4982541;28;20041;-82
2023/05/16 00:56:22;;;;;;;16.25;2.88;;;8.70;99.90;;;;;;5015461;28;20160;-82
2023/05/16 00:58:48;;;;;;;12.15;2.05;;;8.70;99.90;;;;;;5001141;28;20069;-82
2023/05/16 01:01:15;;;;;;;14.65;2.17;;;8.60;99.90;;;;;;5018906;28;20056;-82
2023/05/16 01:03:45;;;;;;;15.35;2.42;;;9.00;99.90;;;;;;4986851;28;20061;-82
2023/05/16 01:06:11;;;;;;;14.25;2.38;;;8.60;99.90;;;;;;4983428;28;20042;-82
2023/05/16 01:08:37;;;;;;;18.65;2.92;;;8.60;99.90;;;;;;4986023;28;20160;-82
2023/05/16 01:11:20;;;;;;;10.77;2.90;;;8.60;99.90;;;;;;5001916;28;20478;-82
2023/05/16 01:14:11;;;;;;;14.18;2.40;;;8.60;99.90;;;;;;4990480;28;20380;-83
2023/05/16 01:17:16;;;;;;;18.77;2.50;;;8.50;99.90;;;;;;5012738;28;20056;-83
2023/05/16 01:20:00;;;;;;;15.13;2.88;;;8.50;99.90;;;;;;4993015;28;20037;-83
2023/05/16 01:22:46;;;;;;;10.57;2.63;;;8.50;99.90;;;;;;4996504;28;20041;-82
2023/05/16 01:25:49;;;;;;;15.40;2.60;;;8.50;99.90;;;;;;5007469;28;20128;-81
2023/05/16 01:28:16;;;;;;;15.90;2.58;;;8.50;99.90;;;;;;5020549;28;20554;-82
2023/05/16 01:30:43;;;;;;;11.55;2.05;;;8.50;99.90;;;;;;5007078;28;20129;-82
2023/05/16 01:33:09;;;;;;;14.23;2.67;;;8.50;99.90;;;;;;5001974;28;20116;-83
2023/05/16 01:35:58;;;;;;;17.55;2.50;;;8.40;99.90;;;;;;5035814;28;20029;-82
2023/05/16 01:38:29;;;;;;;16.83;2.33;;;8.40;99.90;;;;;;5013527;28;20052;-82
2023/05/16 01:41:13;;;;;;;15.55;2.70;;;8.40;99.90;;;;;;5019660;28;20107;-82
2023/05/16 01:43:45;;;;;;;15.57;2.20;;;8.40;99.90;;;;;;5038700;28;20045;-82
2023/05/16 01:46:14;;;;;;;10.18;2.10;;;8.40;99.90;;;;;;5042028;28;20053;-81
2023/05/16 01:49:11;;;;;;;13.32;2.28;;;8.40;99.90;;;;;;5042257;28;20474;-81
2023/05/16 01:51:40;;;;;;;15.55;2.50;;;8.40;99.90;;;;;;5038155;28;20045;-82
2023/05/16 01:54:11;;;;;;;9.43;2.00;;;8.30;99.90;;;;;;5018226;28;20041;-83
2023/05/16 01:56:37;;;;;;;17.55;2.75;;;8.30;99.90;;;;;;5021127;28;20493;-81
2023/05/16 01:59:04;;;;;;;13.88;2.90;;;8.30;99.90;;;;;;5020798;28;20032;-81
2023/05/16 02:01:30;;;;;;;14.32;2.00;;;8.30;99.90;;;;;;5013085;28;20080;-82
2023/05/16 02:03:57;;;;;;;14.75;2.60;;;8.30;99.90;;;;;;4988012;28;20068;-82
2023/05/16 02:06:23;;;;;;;12.13;2.28;;;8.30;99.90;;;;;;5005526;28;20047;-82
2023/05/16 02:08:49;;;;;;;14.20;2.50;;;8.20;99.90;;;;;;4999382;28;20047;-82
2023/05/16 02:11:14;;;;;;;13.27;2.67;;;8.20;99.90;;;;;;5001875;28;20056;-82
2023/05/16 02:13:40;;;;;;;12.07;2.88;;;8.20;99.90;;;;;;4988011;28;20064;-82
2023/05/16 02:16:06;;;;;;;12.00;2.28;;;8.20;99.90;;;;;;5001046;28;20503;-81
2023/05/16 02:18:32;;;;;;;13.25;2.40;;;8.10;99.90;;;;;;5001297;28;20426;-82
2023/05/16 02:20:57;;;;;;;17.30;2.53;;;8.10;99.90;;;;;;5028744;28;20052;-82
2023/05/16 02:23:23;;;;;;;11.27;1.70;;;8.10;99.90;;;;;;4986638;28;20036;-82
2023/05/16 02:25:49;;;;;;;14.10;2.25;;;8.10;99.90;;;;;;4985638;28;20130;-82
2023/05/16 02:28:14;;;;;;;9.63;2.50;;;8.20;99.90;;;;;;5012994;28;20067;-82
2023/05/16 02:30:40;;;;;;;11.82;2.20;;;8.00;99.90;;;;;;4985138;28;20458;-82
2023/05/16 02:33:06;;;;;;;12.35;2.22;;;7.90;99.90;;;;;;5003470;28;20082;-83
2023/05/16 02:35:32;;;;;;;12.38;2.40;;;7.90;99.90;;;;;;5008899;28;20029;-83
2023/05/16 02:37:57;;;;;;;9.25;2.25;;;7.90;99.90;;;;;;5002482;28;20127;-82
2023/05/16 02:40:23;;;;;;;12.60;2.70;;;7.80;99.90;;;;;;4999928;28;20485;-82
2023/05/16 02:42:49;;;;;;;14.05;2.28;;;7.80;99.90;;;;;;5016921;28;20042;-82
2023/05/16 02:45:15;;;;;;;18.77;2.42;;;7.80;99.90;;;;;;4978069;28;20119;-81
2023/05/16 02:47:41;;;;;;;14.30;2.20;;;7.80;99.90;;;;;;4974088;28;20041;-82
2023/05/16 02:50:07;;;;;;;15.85;2.00;;;7.80;99.90;;;;;;5012116;28;20037;-82
2023/05/16 02:52:33;;;;;;;16.60;2.65;;;7.80;99.90;;;;;;4986327;28;20033;-82
2023/05/16 02:54:58;;;;;;;11.93;2.28;;;7.80;99.90;;;;;;5010308;28;20075;-81
2023/05/16 02:57:24;;;;;;;13.85;1.88;;;7.70;99.90;;;;;;5006709;28;20037;-82
2023/05/16 02:59:49;;;;;;;13.98;2.50;;;7.80;99.90;;;;;;4980672;28;20041;-82
2023/05/16 03:02:15;;;;;;;9.65;2.30;;;7.70;99.90;;;;;;4992884;28;20048;-81
2023/05/16 03:04:41;;;;;;;11.88;2.15;;;7.70;99.90;;;;;;5019511;28;20176;-82
2023/05/16 03:07:06;;;;;;;13.43;2.20;;;7.70;99.90;;;;;;5019884;28;20056;-82
2023/05/16 03:09:32;;;;;;;16.92;2.08;;;8.50;99.90;;;;;;5000855;28;20489;-81
2023/05/16 03:11:58;;;;;;;11.07;2.22;;;8.30;99.90;;;;;;5016724;28;20453;-82
2023/05/16 03:14:24;;;;;;;8.57;1.77;;;7.80;99.90;;;;;;5006410;28;20068;-82
2023/05/16 03:16:50;;;;;;;11.55;2.50;;;7.80;99.90;;;;;;4985009;28;20041;-82
2023/05/16 03:19:15;;;;;;;14.05;2.10;;;7.70;99.90;;;;;;5028565;28;20037;-82
2023/05/16 03:21:41;;;;;;;15.18;2.13;;;8.00;99.90;;;;;;5011787;28;20095;-82
2023/05/16 03:24:07;;;;;;;13.52;1.90;;;7.70;99.90;;;;;;4976559;28;20112;-82
2023/05/16 03:26:33;;;;;;;16.98;2.42;;;7.70;99.90;;;;;;4986290;28;20053;-82
2023/05/16 03:28:59;;;;;;;13.98;2.47;;;7.70;99.90;;;;;;5003202;28;20514;-82
2023/05/16 03:31:24;;;;;;;13.18;2.85;;;7.70;99.90;;;;;;4983604;28;20037;-81
2023/05/16 03:33:50;;;;;;;21.20;2.85;;;7.70;99.90;;;;;;5030570;28;20040;-82
2023/05/16 03:36:16;;;;;;;15.65;2.38;;;7.70;99.90;;;;;;5019503;28;20397;-82
2023/05/16 03:38:41;;;;;;;15.23;2.42;;;7.70;99.90;;;;;;5008937;28;20052;-81
2023/05/16 03:41:07;;;;;;;11.07;2.35;;;7.60;99.90;;;;;;5002940;28;20037;-82
2023/05/16 03:43:33;;;;;;;11.80;2.47;;;7.60;99.90;;;;;;5013111;28;20045;-83
2023/05/16 03:46:00;;;;;;;15.80;2.42;;;7.60;99.90;;;;;;5002517;28;20068;-82
2023/05/16 03:48:26;;;;;;;13.10;2.20;;;7.60;99.90;;;;;;5033161;28;20042;-82
2023/05/16 03:50:52;;;;;;;16.45;2.60;;;7.60;99.90;;;;;;5003400;28;20041;-82
2023/05/16 03:53:17;;;;;;;14.73;2.65;;;8.00;99.90;;;;;;5002791;28;20037;-81
2023/05/16 03:55:43;;;;;;;15.90;2.60;;;7.60;99.90;;;;;;5002097;28;20396;-81
2023/05/16 03:58:09;;;;;;;13.48;2.80;;;8.20;99.90;;;;;;4998099;28;20045;-83
2023/05/16 04:00:35;;;;;;;12.60;2.15;;;7.60;99.90;;;;;;4978027;28;20041;-82
2023/05/16 04:03:01;;;;;;;9.25;1.80;;;7.60;99.90;;;;;;5012918;28;20051;-82
2023/05/16 04:05:28;;;;;;;11.90;2.03;;;7.60;99.90;;;;;;5001403;28;20041;-81
2023/05/16 04:07:53;;;;;;;13.20;2.42;;;7.60;99.90;;;;;;4986539;28;20108;-82
2023/05/16 04:10:19;;;;;;;14.02;2.40;;;7.60;99.90;;;;;;5020530;28;20102;-81
2023/05/16 04:12:45;;;;;;;12.30;2.30;;;7.50;99.90;;;;;;5021294;28;20037;-82
2023/05/16 04:15:11;;;;;;;16.35;2.70;;;7.60;99.90;;;;;;4998613;28;20425;-83
2023/05/16 04:17:36;;;;;;;11.55;2.90;;;7.50;99.90;;;;;;5017883;28;20049;-82
2023/05/16 04:20:03;;;;;;;16.25;2.10;;;7.60;99.90;;;;;;4983923;28;20051;-81
2023/05/16 04:22:29;;;;;;;13.45;2.63;;;7.50;99.90;;;;;;5002693;28;20048;-82
2023/05/16 04:24:55;;;;;;;11.18;2.10;;;7.50;99.90;;;;;;5019254;28;20417;-82
2023/05/16 04:27:22;;;;;;;16.95;2.05;;;7.60;99.90;;;;;;4987315;28;20404;-82
2023/05/16 04:29:48;;;;;;;10.88;2.50;;;7.60;99.90;;;;;;4989351;28;20045;-82
2023/05/16 04:32:14;;;;;;;11.70;2.03;;;7.60;99.90;;;;;;5009997;28;20040;-82
2023/05/16 04:34:40;;;;;;;10.55;1.88;;;7.60;99.90;;;;;;5013396;28;20082;-82
2023/05/16 04:37:07;;;;;;;11.20;2.53;;;7.60;99.90;;;;;;5006582;28;20041;-82
2023/05/16 04:39:35;;;;;;;12.55;2.10;;;7.60;99.90;;;;;;5016804;28;20041;-82
2023/05/16 04:42:01;;;;;;;12.95;2.35;;;7.70;99.90;;;;;;4991408;28;20041;-82
2023/05/16 04:44:27;;;;;;;13.48;2.30;;;7.60;99.90;;;;;;5018742;28;20123;-81
2023/05/16 04:46:53;;;;;;;15.48;2.28;;;7.60;99.90;;;;;;5015474;28;20568;-81
2023/05/16 04:49:19;;;;;;;10.60;2.28;;;7.60;99.90;;;;;;5001534;28;20120;-82
2023/05/16 04:51:46;;;;;;;13.13;2.20;;;7.70;99.90;;;;;;5002124;28;20493;-83
2023/05/16 04:54:12;;;;;;;13.73;2.50;;;7.80;99.90;;;;;;5018417;28;20103;-82
2023/05/16 04:56:38;;;;;;;12.25;2.70;;;7.70;99.90;;;;;;5002366;28;20044;-82
2023/05/16 04:59:04;;;;;;;12.93;2.45;;;7.80;99.90;;;;;;5005053;28;20044;-83
2023/05/16 05:01:30;;;;;;;15.35;2.20;;;7.90;99.90;;;;;;5016881;28;20045;-82
2023/05/16 05:03:55;;;;;;;15.43;2.15;;;7.90;99.90;;;;;;5008167;28;20076;-82
2023/05/16 05:06:21;;;;;;;17.40;2.05;;;7.90;99.90;;;;;;4992642;28;20044;-82
2023/05/16 05:08:48;;;;;;;18.10;2.63;;;7.90;99.90;;;;;;5018160;28;20044;-82
2023/05/16 05:11:13;;;;;;;11.20;2.35;;;8.00;99.90;;;;;;5017776;28;20036;-82
2023/05/16 05:13:39;;;;;;;11.35;2.17;;;8.00;99.90;;;;;;5018163;28;20124;-81
2023/05/16 05:16:05;;;;;;;12.10;1.85;;;8.00;99.90;;;;;;4987290;28;20491;-82
2023/05/16 05:18:31;;;;;;;13.02;2.28;;;8.00;99.90;;;;;;5029462;28;20048;-82
2023/05/16 05:20:57;;;;;;;11.45;2.15;;;8.10;99.90;;;;;;4993561;28;20041;-82
2023/05/16 05:23:23;;;;;;;7.80;2.15;;;8.20;99.90;;;;;;4994212;28;20093;-81
2023/05/16 05:25:49;;;;;;;10.27;1.70;;;8.20;99.90;;;;;;5007013;28;20484;-82
2023/05/16 05:28:15;;;;;;;15.48;2.33;;;8.30;99.90;;;;;;5017925;28;20051;-82
2023/05/16 05:30:41;;;;;;;15.90;2.33;;;8.40;99.90;;;;;;4997782;28;20033;-82
2023/05/16 05:33:07;;;;;;;10.80;2.08;;;8.40;99.90;;;;;;4984521;28;20107;-82
2023/05/16 05:35:32;;;;;;;16.05;1.85;;;8.40;99.90;;;;;;5001272;28;20167;-83
2023/05/16 05:37:58;;;;;;;13.50;2.85;;;8.50;99.90;;;;;;4981192;28;20041;-82
2023/05/16 05:40:24;;;;;;;9.10;1.85;;;8.60;99.90;;;;;;4991345;28;20040;-82
2023/05/16 05:42:50;;;;;;;8.07;1.60;;;8.60;99.90;;;;;;5002862;28;20041;-81
2023/05/16 05:45:16;;;;;;;14.25;2.42;;;8.70;99.90;;;;;;4984271;28;20361;-82
2023/05/16 05:47:42;;;;;;;10.80;2.40;;;8.70;99.90;;;;;;5003175;28;20072;-82
2023/05/16 05:50:10;;;;;;;12.90;1.90;;;8.80;99.90;;;;;;5026416;28;20033;-83
2023/05/16 05:52:37;;;;;;;9.65;2.90;;;8.90;99.90;;;;;;5021361;28;20420;-82
2023/05/16 05:55:03;;;;;;;15.60;2.58;;;9.00;99.90;;;;;;5019064;28;20065;-82
2023/05/16 05:57:28;;;;;;;13.05;2.40;;;9.00;99.90;;;;;;5001968;28;20506;-82
2023/05/16 05:59:54;;;;;;;9.63;1.42;;;9.10;99.90;;;;;;5025317;28;20085;-81
2023/05/16 06:02:20;;;;;;;12.27;2.55;;;9.20;99.90;;;;;;5043316;28;20036;-81
2023/05/16 06:04:46;;;;;;;9.20;1.83;;;9.20;99.90;;;;;;4987197;28;20094;-82
2023/05/16 06:07:12;;;;;;;11.73;2.38;;;9.30;99.90;;;;;;4985304;28;20041;-81
2023/05/16 06:09:37;;;;;;;11.38;2.38;;;9.40;99.90;;;;;;5018209;28;20033;-81
2023/05/16 06:12:03;;;;;;;8.75;2.00;;;9.50;99.90;;;;;;4996121;28;20107;-81
2023/05/16 06:14:29;;;;;;;11.85;2.53;;;9.60;99.90;;;;;;5001902;28;20076;-81
2023/05/16 06:16:55;;;;;;;5.32;1.60;;;9.60;99.90;;;;;;5012418;28;20072;-81
2023/05/16 06:19:21;;;;;;;11.95;2.17;;;9.70;99.90;;;;;;5025728;28;20098;-82
2023/05/16 06:21:47;;;;;;;11.13;2.13;;;9.80;99.90;;;;;;5007386;28;20510;-82
2023/05/16 06:24:12;;;;;;;7.50;1.80;;;9.90;99.90;;;;;;4991665;28;20500;-82
2023/05/16 06:26:38;;;;;;;14.43;2.22;;;9.90;99.90;;;;;;5000538;28;20361;-80
2023/05/16 06:29:04;;;;;;;12.88;1.70;;;10.00;99.90;;;;;;5044896;28;20569;-82
2023/05/16 06:31:30;;;;;;;10.25;1.90;;;10.10;99.90;;;;;;5036370;28;20041;-82
2023/05/16 06:33:56;;;;;;;8.23;1.42;;;10.30;99.90;;;;;;5019713;28;20135;-82
2023/05/16 06:36:22;;;;;;;10.07;1.63;;;10.50;99.90;;;;;;5037481;28;20064;-83
2023/05/16 06:38:49;;;;;;;6.97;1.73;;;10.70;99.90;;;;;;4991520;28;20047;-82
2023/05/16 06:41:15;;;;;;;8.70;1.98;;;10.90;99.90;;;;;;5002368;28;20144;-82
2023/05/16 06:43:41;;;;;;;7.05;1.60;;;11.30;99.90;;;;;;5000924;28;20552;-83
2023/05/16 06:46:06;;;;;;;12.52;1.98;;;11.70;99.90;;;;;;5001105;28;20087;-83
2023/05/16 06:48:32;;;;;;;6.22;1.27;;;12.00;99.90;;;;;;5033063;28;20048;-84
2023/05/16 06:50:58;;;;;;;8.68;1.67;;;12.10;99.90;;;;;;4991989;28;20179;-83
2023/05/16 06:53:25;;;;;;;9.13;1.70;;;11.80;99.90;;;;;;4979971;28;20048;-83
2023/05/16 06:55:50;;;;;;;9.02;1.55;;;11.60;99.90;;;;;;4982177;28;20044;-84
2023/05/16 06:58:16;;;;;;;9.13;1.80;;;11.70;99.90;;;;;;5007080;28;20401;-84
2023/05/16 07:00:42;;;;;;;6.63;1.90;;;11.80;99.90;;;;;;5020351;28;20037;-84
2023/05/16 07:03:08;;;;;;;8.10;1.83;;;11.90;99.90;;;;;;5008840;28;20041;-83
2023/05/16 07:05:34;;;;;;;9.45;1.77;;;12.00;99.90;;;;;;4996500;28;20037;-82
2023/05/16 07:08:00;;;;;;;9.18;1.45;;;12.10;99.90;;;;;;4979952;28;20429;-82
2023/05/16 07:10:28;;;;;;;8.10;1.60;;;12.20;99.90;;;;;;4985037;28;20079;-82
2023/05/16 07:12:54;;;;;;;5.38;1.50;;;12.20;99.90;;;;;;5005992;28;20049;-83
2023/05/16 07:15:20;;;;;;;6.55;1.50;;;12.30;99.90;;;;;;5004074;28;20036;-82
2023/05/16 07:17:45;;;;;;;8.75;1.80;;;12.30;99.90;;;;;;5018258;28;20435;-83
2023/05/16 07:20:13;;;;;;;8.80;1.65;;;12.50;99.90;;;;;;4982144;28;20052;-82
2023/05/16 07:22:39;;;;;;;4.22;1.08;;;12.70;99.90;;;;;;4978723;28;20043;-82
2023/05/16 07:25:11;;;;;;;8.18;1.60;;;12.90;99.90;;;;;;4984535;28;20076;-83
2023/05/16 07:27:43;;;;;;;8.45;2.05;;;13.10;99.90;;;;;;5014173;28;20050;-82
2023/05/16 07:30:13;;;;;;;8.27;1.30;;;13.20;99.90;;;;;;4996397;28;20516;-82
2023/05/16 07:32:39;;;;;;;9.40;1.95;;;13.30;99.90;;;;;;5019279;28;20485;-81
2023/05/16 07:35:05;;;;;;;4.70;1.40;;;13.40;99.90;;;;;;5036820;28;20386;-81
2023/05/16 07:37:31;;;;;;;10.80;1.70;;;13.50;99.90;;;;;;5036455;28;20045;-82
2023/05/16 07:39:57;;;;;;;6.68;1.60;;;13.50;99.90;;;;;;5020057;28;20048;-81
2023/05/16 07:42:23;;;;;;;4.07;1.50;;;13.50;99.90;;;;;;5003979;28;20037;-82
2023/05/16 07:44:49;;;;;;;5.57;1.60;;;13.50;99.90;;;;;;5002729;28;20090;-81
2023/05/16 07:47:15;;;;;;;9.52;2.05;;;13.40;99.90;;;;;;5032511;28;20428;-82
2023/05/16 07:49:40;;;;;;;8.10;1.52;;;13.20;99.90;;;;;;5003603;28;20076;-81
2023/05/16 07:52:06;;;;;;;12.82;1.60;;;13.00;99.90;;;;;;5013984;28;20041;-80
2023/05/16 07:54:34;;;;;;;8.07;1.73;;;12.80;99.90;;;;;;5020419;28;20041;-81
2023/05/16 07:57:00;;;;;;;8.40;1.77;;;12.60;99.90;;;;;;5034952;28;20033;-82
2023/05/16 07:59:26;;;;;;;9.05;1.35;;;12.40;99.90;;;;;;4991467;28;20033;-82
2023/05/16 08:01:53;;;;;;;8.85;2.03;;;12.20;99.90;;;;;;4999739;28;20441;-82
2023/05/16 08:04:19;;;;;;;5.88;1.40;;;12.10;99.90;;;;;;4997793;28;20072;-82
2023/05/16 08:06:45;;;;;;;8.43;1.50;;;12.20;99.90;;;;;;5014147;28;20143;-81
2023/05/16 08:09:11;;;;;;;11.13;1.40;;;12.40;99.90;;;;;;4975181;28;20131;-82
2023/05/16 08:11:38;;;;;;;6.13;1.70;;;12.70;99.90;;;;;;5002593;28;20463;-83
2023/05/16 08:14:04;;;;;;;6.65;1.50;;;13.00;99.90;;;;;;4981432;28;20041;-82
2023/05/16 08:16:30;;;;;;;7.80;1.50;;;13.30;99.90;;;;;;5017085;28;20068;-80
2023/05/16 08:18:56;;;;;;;6.90;1.50;;;13.50;99.90;;;;;;5032267;28;20072;-80
2023/05/16 08:21:22;;;;;;;8.48;1.73;;;13.70;99.90;;;;;;4987842;28;20504;-81
2023/05/16 08:23:47;;;;;;;5.97;1.55;;;13.80;99.90;;;;;;5001700;28;20477;-82
2023/05/16 08:26:13;;;;;;;8.02;1.75;;;13.90;99.90;;;;;;5002903;28;20049;-82
2023/05/16 08:28:39;;;;;;;6.10;1.58;;;14.00;99.90;;;;;;4998618;28;20049;-81
2023/05/16 08:31:04;;;;;;;7.45;1.75;;;14.10;99.90;;;;;;5015875;28;20102;-82
2023/05/16 08:33:30;;;;;;;6.60;1.55;;;14.10;99.90;;;;;;5021338;28;20037;-82
2023/05/16 08:35:56;;;;;;;5.88;1.48;;;14.20;99.90;;;;;;5011935;28;20036;-82
2023/05/16 08:38:21;;;;;;;6.50;1.58;;;14.30;99.90;;;;;;4997570;28;20041;-82
2023/05/16 08:40:47;;;;;;;5.32;1.63;;;14.40;99.90;;;;;;5030230;28;20517;-82
2023/05/16 08:43:13;;;;;;;5.22;1.52;;;14.70;99.90;;;;;;5009502;28;20113;-82
2023/05/16 08:45:40;;;;;;;4.22;1.48;;;14.80;99.90;;;;;;5004848;28;20043;-82
2023/05/16 08:48:06;;;;;;;5.90;1.55;;;14.70;99.90;;;;;;5040328;28;20171;-82
2023/05/16 08:50:34;;;;;;;6.60;1.30;;;14.40;99.90;;;;;;5031331;28;20130;-81
2023/05/16 08:53:06;;;;;;;4.30;1.00;;;14.20;99.90;;;;;;5000397;28;20048;-81
2023/05/16 08:55:32;;;;;;;5.78;1.67;;;14.00;99.90;;;;;;5031846;28;20037;-82
2023/05/16 08:57:59;;;;;;;5.55;1.00;;;14.00;99.90;;;;;;5032897;28;20048;-82
2023/05/16 09:00:26;;;;;;;5.22;1.33;;;14.10;99.90;;;;;;5017860;28;20041;-81
2023/05/16 09:02:52;;;;;;;4.95;1.38;;;14.20;99.90;;;;;;5017293;28;20056;-82
2023/05/16 09:05:18;;;;;;;7.47;1.40;;;14.20;99.90;;;;;;4999411;28;20099;-82
2023/05/16 09:07:44;;;;;;;6.10;1.20;;;14.40;99.90;;;;;;5029792;28;20041;-82
2023/05/16 09:10:11;;;;;;;4.07;1.15;;;14.50;99.90;;;;;;5017265;28;20039;-82
2023/05/16 09:12:38;;;;;;;5.65;1.35;;;14.70;99.90;;;;;;4979384;28;20049;-82
2023/05/16 09:15:06;;;;;;;5.97;1.60;;;14.90;99.90;;;;;;5016826;28;20048;-82
2023/05/16 09:17:43;;;;;;;7.68;1.40;;;15.00;99.90;;;;;;5009554;28;20041;-82
2023/05/16 09:20:19;;;;;;;8.52;1.80;;;15.00;99.90;;;;;;4993345;28;20439;-82
2023/05/16 09:22:59;;;;;;;4.28;1.27;;;14.90;99.60;;;;;;5020843;28;20144;-81
2023/05/16 09:25:30;;;;;;;11.50;1.98;;;14.60;99.40;;;;;;5004412;28;20424;-82
2023/05/16 09:27:57;;;;;;;4.47;1.27;;;14.50;99.90;;;;;;5000838;28;20103;-82
2023/05/16 09:30:37;;;;;;;6.20;1.30;;;14.60;99.90;;;;;;5001111;28;20076;-82
2023/05/16 09:33:06;;;;;;;7.70;1.10;;;14.70;99.80;;;;;;4995141;28;20125;-83
2023/05/16 09:35:32;;;;;;;8.30;1.50;;;14.80;99.90;;;;;;5001107;28;20069;-82
2023/05/16 09:37:57;;;;;;;5.18;1.27;;;14.80;99.90;;;;;;4968888;28;20087;-82
2023/05/16 09:40:23;;;;;;;7.93;1.50;;;14.90;99.90;;;;;;5001181;28;20053;-82
2023/05/16 09:43:09;;;;;;;6.70;1.40;;;15.00;99.90;;;;;;4976522;28;20503;-82
2023/05/16 09:45:35;;;;;;;7.00;1.77;;;15.00;99.90;;;;;;4978288;28;20057;-83
2023/05/16 09:48:07;;;;;;;5.30;1.58;;;15.00;99.90;;;;;;4995846;28;20034;-82
2023/05/16 09:50:36;;;;;;;6.38;1.38;;;15.10;99.90;;;;;;4983299;28;20056;-82
2023/05/16 09:53:03;;;;;;;6.75;1.50;;;15.10;99.90;;;;;;4997372;28;20359;-83
2023/05/16 09:55:30;;;;;;;7.22;1.63;;;15.20;99.90;;;;;;4965112;28;20034;-82
2023/05/16 09:57:55;;;;;;;5.20;0.90;;;15.10;99.90;;;;;;5014216;28;20037;-82
2023/05/16 10:00:21;;;;;;;9.48;1.67;;;15.00;99.90;;;;;;4990194;28;20029;-81
2023/05/16 10:02:49;;;;;;;8.43;1.98;;;14.80;99.90;;;;;;4998461;28;20469;-81
2023/05/16 10:05:16;;;;;;;10.52;2.22;;;14.60;99.90;;;;;;4998432;28;20029;-82
2023/05/16 10:07:43;;;;;;;6.70;1.48;;;14.50;99.90;;;;;;5004852;28;20046;-83
2023/05/16 10:10:11;;;;;;;7.57;1.58;;;14.40;99.90;;;;;;4988973;28;20042;-81
2023/05/16 10:12:37;;;;;;;10.40;1.58;;;14.30;99.90;;;;;;4998031;28;20077;-82
2023/05/16 10:15:04;;;;;;;6.93;1.45;;;14.20;99.90;;;;;;4994602;28;20521;-82
2023/05/16 10:17:33;;;;;;;8.35;1.38;;;14.20;99.90;;;;;;4996955;28;20111;-82
2023/05/16 10:20:10;;;;;;;8.73;1.88;;;14.10;99.90;;;;;;5018586;28;20037;-82
2023/05/16 10:22:41;;;;;;;5.18;1.23;;;14.00;99.90;;;;;;4998020;28;20073;-82
2023/05/16 10:25:14;;;;;;;7.93;1.23;;;14.00;99.90;;;;;;5012485;28;20044;-82
2023/05/16 10:27:41;;;;;;;5.75;1.45;;;13.90;99.90;;;;;;4999369;28;20156;-82
2023/05/16 10:30:08;;;;;;;9.20;1.35;;;14.00;99.90;;;;;;4994754;28;20120;-83
2023/05/16 10:32:36;;;;;;;8.60;1.60;;;14.00;99.90;;;;;;5001637;28;20076;-82
2023/05/16 10:35:03;;;;;;;7.45;1.70;;;14.10;99.90;;;;;;4986034;28;20048;-81
2023/05/16 10:37:31;;;;;;;10.23;1.80;;;14.20;99.90;;;;;;5022228;28;20041;-81
2023/05/16 10:39:59;;;;;;;5.78;1.73;;;14.20;99.90;;;;;;5012292;28;20044;-81
2023/05/16 10:42:25;;;;;;;7.03;1.55;;;14.20;99.90;;;;;;5014943;28;20065;-81
2023/05/16 10:44:57;;;;;;;5.40;1.90;;;14.20;99.90;;;;;;4980211;28;20068;-79
2023/05/16 10:47:23;;;;;;;7.18;1.70;;;14.20;99.90;;;;;;4966474;28;20074;-80
2023/05/16 10:49:49;;;;;;;4.78;1.40;;;14.30;99.90;;;;;;4985140;28;20033;-80
2023/05/16 10:52:16;;;;;;;7.20;1.50;;;14.40;99.90;;;;;;4988853;28;20048;-81
2023/05/16 10:54:51;;;;;;;7.70;1.73;;;14.40;99.90;;;;;;5013222;28;20081;-81
2023/05/16 10:57:22;;;;;;;6.65;1.42;;;14.30;99.90;;;;;;4975571;28;20486;-82
2023/05/16 10:59:49;;;;;;;7.18;1.63;;;14.00;99.90;;;;;;4997511;28;20074;-82
2023/05/16 11:02:32;;;;;;;5.53;1.58;;;13.80;99.90;;;;;;4999810;28;20432;-82
2023/05/16 11:05:00;;;;;;;6.35;1.60;;;13.70;99.90;;;;;;5015663;28;20042;-82
2023/05/16 11:07:32;;;;;;;4.32;1.27;;;13.70;99.90;;;;;;5000013;28;20393;-83
2023/05/16 11:10:14;;;;;;;11.57;1.90;;;13.90;99.90;;;;;;5004763;28;20037;-82
2023/05/16 11:12:50;;;;;;;8.82;2.33;;;14.00;99.90;;;;;;4999663;28;20044;-82
2023/05/16 11:15:20;;;;;;;;;;;14.10;99.90;;;;;;4999186;28;20073;-82
2023/05/16 11:17:46;;;;;;;7.45;1.40;;;14.30;99.90;;;;;;4992362;28;19917;-81
2023/05/16 11:20:39;;;;;;;5.75;1.70;;;14.40;99.90;;;;;;4979696;28;20037;-82
2023/05/16 11:23:20;;;;;;;9.05;2.15;;;14.40;99.90;;;;;;4989716;28;20077;-83
2023/05/16 11:25:49;;;;;;;7.53;1.83;;;14.50;99.90;;;;;;4997382;28;20113;-82
2023/05/16 11:28:16;;;;;;;6.68;1.50;;;14.60;99.90;;;;;;4987607;28;20050;-81
2023/05/16 11:30:51;;;;;;;5.15;1.45;;;14.80;99.90;;;;;;4981988;28;20041;-82
2023/05/16 11:33:17;;;;;;;8.27;1.58;;;14.80;99.90;;;;;;5014921;28;20101;-82
2023/05/16 11:35:58;;;;;;;7.63;1.92;;;14.60;99.90;;;;;;4990988;28;20049;-83
2023/05/16 11:38:24;;;;;;;10.98;1.92;;;14.50;99.90;;;;;;4982814;28;20042;-82
2023/05/16 11:40:49;;;;;;;9.13;1.80;;;14.30;99.90;;;;;;4978949;28;20494;-83
2023/05/16 11:43:18;;;;;;;4.40;1.08;;;14.10;99.90;;;;;;4974850;28;20068;-82
2023/05/16 11:45:44;;;;;;;6.85;1.30;;;13.70;99.90;;;;;;4995857;28;20502;-82
2023/05/16 11:48:10;;;;;;;6.55;1.65;;;13.50;99.90;;;;;;4994203;28;20045;-83
2023/05/16 11:50:37;;;;;;;6.13;1.50;;;13.40;99.90;;;;;;4997277;28;20477;-83
2023/05/16 11:53:03;;;;;;;4.53;1.42;;;13.50;99.90;;;;;;4980392;28;20038;-83
2023/05/16 11:55:29;;;;;;;6.05;1.42;;;13.60;99.90;;;;;;4964056;28;20041;-82
2023/05/16 11:57:58;;;;;;;7.07;1.20;;;13.60;99.90;;;;;;4980146;28;20414;-83
2023/05/16 12:00:26;;;;;;;3.75;1.13;;;13.60;99.90;;;;;;4990285;28;20040;-83
2023/05/16 12:02:53;;;;;;;4.65;1.08;;;13.60;99.90;;;;;;4982386;28;20080;-83
2023/05/16 12:05:24;;;;;;;3.28;1.05;;;13.50;99.90;;;;;;5014043;28;20122;-82
2023/05/16 12:07:53;;;;;;;2.97;1.00;;;13.70;99.90;;;;;;4991730;28;20049;-82
2023/05/16 12:10:19;;;;;;;2.78;1.00;;;13.80;99.90;;;;;;5014517;28;20046;-83
2023/05/16 12:12:51;;;;;;;6.15;1.23;;;13.80;99.90;;;;;;4981335;28;20197;-83
2023/05/16 12:15:17;;;;;;;5.28;1.30;;;14.00;99.90;;;;;;4995522;28;20044;-82
2023/05/16 12:17:43;;;;;;;6.35;1.25;;;14.10;99.90;;;;;;4981508;28;20041;-83
2023/05/16 12:20:16;;;;;;;4.78;1.00;;;14.30;99.90;;;;;;4982079;28;20045;-83
2023/05/16 12:22:43;;;;;;;7.60;1.52;;;14.40;99.90;;;;;;4997266;28;20435;-83
2023/05/16 12:25:32;;;;;;;7.72;1.42;;;14.50;99.90;;;;;;4982742;28;20045;-83
2023/05/16 12:28:00;;;;;;;3.83;1.38;;;14.70;99.90;;;;;;4994925;28;20041;-82
2023/05/16 12:30:27;;;;;;;4.72;1.38;;;14.80;99.90;;;;;;5008618;28;20119;-82
2023/05/16 12:33:07;;;;;;;3.10;1.38;;;14.90;99.90;;;;;;4995799;28;20056;-82
2023/05/16 12:35:33;;;;;;;4.25;1.30;;;15.00;99.90;;;;;;4982687;28;20091;-82
2023/05/16 12:38:02;;;;;;;3.17;1.20;;;15.00;99.90;;;;;;5029603;28;20559;-82
2023/05/16 12:40:29;;;;;;;4.65;1.23;;;15.10;99.90;;;;;;4997249;28;20041;-82
2023/05/16 12:42:54;;;;;;;5.63;1.40;;;15.30;99.90;;;;;;4992886;28;20041;-81
2023/05/16 12:45:26;;;;;;;5.75;1.10;;;15.40;99.90;;;;;;4980671;28;20176;-82
2023/05/16 12:47:51;;;;;;;4.32;1.25;;;15.30;99.90;;;;;;4991568;28;20046;-82
2023/05/16 12:50:17;;;;;;;4.20;1.33;;;15.50;99.90;;;;;;4975180;28;20034;-82